aviador You're here:

KPUC Decoded Metar

PRICE in UT, USA
Report Time2018-02-25 22:53:00
UTC Time2018-02-25 23:45:28
Flight Rules vfr VFR
WindVRB at 05 kt
Visibility9999 m
Phenomena:N/A
Clouds:N/A
Expected CloudBase > 5,600 ft AGL from Temp-Dew spread
CeilingNone
Temp01°C (ISA -0)
Dew Point-13°C (35% RH)
AAT-4.0°C
QNH1019 hPa
Density Alt6,654 ft
Elevation6,860 ft
Report Wrong Elevation
Raw Report
METAR KPUC 252253Z AUTO VRB05KT 10SM CLR 01/M13 A3009 RMK AO2 SLP245
T00111133=

Extra information for KPUC:More info

Metar Taf Metar & Taf Last 4 Metars F.Rules Stats Wind Profile Meteogram Temp Stats Airport Information Weather charts Add Link Nearby VenuesMetar ALERT Operation Metar Decoded Social comments

AIRNAV info for KPUC